createdAt,value
2023-05-21T00:02:44.994Z,99.5880
2023-05-21T00:03:46.536Z,99.5850
2023-05-21T00:10:51.414Z,99.6134
2023-05-21T00:11:51.875Z,99.6163
2023-05-21T00:13:52.416Z,99.6340
2023-05-21T00:14:53.316Z,99.6403
2023-05-21T00:15:54.364Z,99.6371
2023-05-21T00:16:54.949Z,99.6314
2023-05-21T00:17:56.863Z,99.6224
2023-05-21T00:18:58.087Z,99.6214
2023-05-21T00:19:58.509Z,99.6440
2023-05-21T00:20:58.836Z,99.6755
2023-05-21T00:22:00.032Z,99.6680
2023-05-21T00:25:00.737Z,99.7104
2023-05-21T00:26:01.637Z,99.7035
2023-05-21T00:27:03.130Z,99.7045
2023-05-21T00:28:03.843Z,99.7000
2023-05-21T00:30:04.736Z,99.7140
2023-05-21T00:31:05.712Z,99.7153
2023-05-21T00:32:06.167Z,99.7165
2023-05-21T00:33:06.218Z,99.7178
2023-05-21T00:34:07.821Z,99.7263
2023-05-21T00:35:08.754Z,99.7258
2023-05-21T00:40:12.539Z,99.7728
2023-05-21T00:41:13.461Z,99.7746
2023-05-21T00:42:13.993Z,99.7527
2023-05-21T00:43:15.648Z,99.7621
2023-05-21T00:44:15.895Z,99.7649
2023-05-21T00:45:16.442Z,99.7571
2023-05-21T00:46:17.272Z,99.7677
2023-05-21T00:54:24.241Z,99.8092
2023-05-21T00:55:24.756Z,99.8261
2023-05-21T00:56:24.772Z,99.8171
2023-05-21T00:57:26.608Z,99.7963
2023-05-21T00:58:27.339Z,99.8006
2023-05-21T00:59:27.866Z,99.8143
2023-05-21T01:00:29.596Z,99.8195
2023-05-21T01:02:29.113Z,99.8180
2023-05-21T01:03:30.124Z,99.8274
2023-05-21T01:05:31.731Z,99.8353
2023-05-21T01:06:32.612Z,99.8476
2023-05-21T01:13:35.775Z,99.8503
2023-05-21T01:14:35.887Z,99.8510
2023-05-21T01:15:36.417Z,99.8501
2023-05-21T01:16:37.394Z,99.8540
2023-05-21T01:17:38.018Z,99.8537
2023-05-21T01:18:38.585Z,99.8536
2023-05-21T01:19:39.504Z,99.8572
2023-05-21T01:20:40.557Z,99.8590
2023-05-21T01:21:41.334Z,99.8547
2023-05-21T01:22:41.409Z,99.8543
2023-05-21T01:23:42.299Z,99.8587
2023-05-21T01:25:45.531Z,99.8592
2023-05-21T01:26:46.398Z,99.8514
2023-05-21T01:27:47.273Z,99.8564
2023-05-21T01:28:48.097Z,99.8599
2023-05-21T01:29:48.413Z,99.8574
2023-05-21T01:31:51.187Z,99.8505
2023-05-21T01:33:51.309Z,99.8462
2023-05-21T01:34:51.557Z,99.8399
2023-05-21T01:35:53.525Z,99.8406
2023-05-21T01:36:55.376Z,99.8355
2023-05-21T01:39:57.453Z,99.8219
2023-05-21T01:50:05.805Z,99.7815
2023-05-21T01:53:08.262Z,99.7629
2023-05-21T01:55:08.034Z,99.7597
2023-05-21T01:56:08.798Z,99.7596
2023-05-21T01:58:10.108Z,99.7500
2023-05-21T02:01:13.713Z,99.7315
2023-05-21T02:10:18.970Z,99.6998
2023-05-21T02:11:21.137Z,99.7139
2023-05-21T02:12:23.014Z,99.7209
2023-05-21T02:13:26.050Z,99.7208
2023-05-21T02:14:24.170Z,99.7110
2023-05-21T02:17:25.411Z,99.7127
2023-05-21T02:18:26.384Z,99.7060
2023-05-21T02:23:29.418Z,99.6908
2023-05-21T02:24:29.487Z,99.7014
2023-05-21T02:25:30.732Z,99.6992
2023-05-21T02:26:31.497Z,99.7034
2023-05-21T02:27:31.919Z,99.7256
2023-05-21T02:28:32.885Z,99.7211
2023-05-21T02:29:34.321Z,99.7022
2023-05-21T02:30:35.633Z,99.6869
2023-05-21T02:31:36.138Z,99.6816
2023-05-21T02:32:37.821Z,99.6746
2023-05-21T02:43:43.284Z,99.6516
2023-05-21T02:44:43.870Z,99.6523
2023-05-21T02:45:43.969Z,99.6480
2023-05-21T02:46:44.152Z,99.6356
2023-05-21T02:47:44.655Z,99.6441
2023-05-21T02:48:45.021Z,99.6522
2023-05-21T02:49:46.585Z,99.6477
2023-05-21T02:50:47.860Z,99.6490
2023-05-21T02:51:49.709Z,99.6319
2023-05-21T02:52:49.986Z,99.6181
2023-05-21T02:53:49.996Z,99.6258
2023-05-21T02:54:50.835Z,99.6218
2023-05-21T02:55:51.029Z,99.6334
2023-05-21T02:56:52.024Z,99.6479
2023-05-21T02:57:52.768Z,99.6575
2023-05-21T02:58:52.884Z,99.6652
2023-05-21T02:59:53.873Z,99.6690
2023-05-21T03:00:54.060Z,99.6592
2023-05-21T03:05:56.530Z,99.7282
2023-05-21T03:06:57.767Z,99.7213
2023-05-21T03:07:58.608Z,99.7342
2023-05-21T03:09:00.600Z,99.7543
2023-05-21T03:10:01.139Z,99.7548
2023-05-21T03:11:01.489Z,99.7520
2023-05-21T03:12:02.345Z,99.7476
2023-05-21T03:13:03.263Z,99.7727
2023-05-21T03:14:03.678Z,99.7765
2023-05-21T03:19:36.098Z,99.7811
2023-05-21T03:20:36.312Z,99.7643
2023-05-21T03:21:37.982Z,99.7638
2023-05-21T03:23:38.687Z,99.7487
2023-05-21T03:24:39.683Z,99.7443
2023-05-21T03:26:40.279Z,99.7511
2023-05-21T03:27:41.053Z,99.7553
2023-05-21T03:29:42.624Z,99.7560
2023-05-21T03:41:51.212Z,99.6942
2023-05-21T03:42:52.219Z,99.7160
2023-05-21T03:44:52.879Z,99.8058
2023-05-21T03:45:53.446Z,99.7997
2023-05-21T03:46:54.815Z,99.7932
2023-05-21T03:48:56.010Z,99.8140
2023-05-21T03:49:56.703Z,99.8229
2023-05-21T03:50:56.820Z,99.8671
2023-05-21T03:51:58.374Z,99.8833
2023-05-21T03:53:58.313Z,99.8302
2023-05-21T03:54:58.513Z,99.8333
2023-05-21T03:55:58.775Z,99.8638
2023-05-21T03:57:00.003Z,99.8984
2023-05-21T03:58:00.499Z,99.8852
2023-05-21T03:59:01.309Z,99.8907
2023-05-21T04:00:02.944Z,99.8872
2023-05-21T04:01:04.124Z,99.8985
2023-05-21T04:02:04.966Z,99.9340
2023-05-21T04:03:06.428Z,99.9601
2023-05-21T04:04:07.372Z,99.9566
2023-05-21T04:05:06.619Z,99.9785
2023-05-21T04:06:08.529Z,99.9988
2023-05-21T04:07:10.049Z,99.9979
2023-05-21T04:08:10.593Z,99.9958
2023-05-21T04:09:11.359Z,99.9894
2023-05-21T04:14:14.417Z,100.0000
2023-05-21T04:17:15.086Z,100.0000
2023-05-21T04:18:16.287Z,100.0000
2023-05-21T04:20:16.291Z,100.0000
2023-05-21T04:21:17.260Z,100.0000
2023-05-21T04:23:18.020Z,100.0000
2023-05-21T04:24:18.387Z,100.0000
2023-05-21T04:25:18.601Z,99.9996
2023-05-21T04:26:20.733Z,100.0000
2023-05-21T04:29:24.478Z,100.0000
2023-05-21T04:30:25.901Z,99.9999
2023-05-21T04:35:28.356Z,99.9989
2023-05-21T04:37:29.850Z,99.9973
2023-05-21T04:38:30.215Z,99.9981
2023-05-21T04:43:34.316Z,99.9353
2023-05-21T04:45:33.868Z,99.9030
2023-05-21T04:46:35.424Z,99.8880
2023-05-21T04:47:36.271Z,99.8608
2023-05-21T04:56:40.458Z,99.3435
2023-05-21T04:57:41.653Z,99.2112
2023-05-21T04:58:42.277Z,99.0908
2023-05-21T04:59:42.849Z,98.9622
2023-05-21T05:00:43.988Z,98.8378
2023-05-21T05:01:44.436Z,98.7258
2023-05-21T05:03:45.817Z,98.5186
2023-05-21T05:04:46.274Z,98.3836
2023-05-21T05:05:47.042Z,98.2465
2023-05-21T05:07:49.445Z,97.8852
2023-05-21T05:09:49.996Z,97.6776
2023-05-21T05:10:50.765Z,97.5545
2023-05-21T05:11:50.948Z,97.3711
2023-05-21T05:12:52.079Z,97.2100
2023-05-21T05:19:56.326Z,97.0928
2023-05-21T05:20:58.318Z,97.0818
2023-05-21T05:21:59.272Z,97.0563
2023-05-21T05:22:59.750Z,96.9189
2023-05-21T05:24:01.049Z,96.6841
2023-05-21T05:25:01.751Z,96.6119
2023-05-21T05:27:02.044Z,96.6253
2023-05-21T05:28:03.739Z,96.5754
2023-05-21T05:30:04.256Z,96.4785
2023-05-21T05:31:05.116Z,96.3789
2023-05-21T05:32:06.210Z,96.2949
2023-05-21T05:33:08.317Z,96.0268
2023-05-21T05:34:08.511Z,95.7988
2023-05-21T05:35:08.779Z,95.5591
2023-05-21T05:36:09.373Z,95.3783
2023-05-21T05:37:11.006Z,95.4175
2023-05-21T05:40:13.447Z,95.1994
2023-05-21T05:41:14.101Z,94.7416
2023-05-21T05:42:15.328Z,94.6930
2023-05-21T05:43:16.849Z,94.6448
2023-05-21T05:48:20.907Z,95.1040
2023-05-21T05:49:22.222Z,95.4032
2023-05-21T05:50:22.489Z,95.3584
2023-05-21T05:51:23.181Z,95.2545
2023-05-21T05:52:23.493Z,95.2009
2023-05-21T05:53:24.682Z,95.0178
2023-05-21T05:54:25.135Z,94.7449
2023-05-21T05:55:25.273Z,94.4029
2023-05-21T05:56:25.807Z,94.3662
2023-05-21T05:57:26.067Z,94.4503
2023-05-21T05:58:27.247Z,94.7528
2023-05-21T05:59:27.508Z,94.5205
2023-05-21T06:00:28.841Z,94.4500
2023-05-21T06:01:29.832Z,94.2030
2023-05-21T06:02:30.303Z,93.7859
2023-05-21T06:03:30.539Z,93.2805
2023-05-21T06:07:33.346Z,93.0197
2023-05-21T06:08:36.640Z,93.0021
2023-05-21T06:09:34.796Z,93.3939
2023-05-21T06:10:35.706Z,93.6048
2023-05-21T06:11:35.751Z,93.5341
2023-05-21T06:12:36.891Z,93.5847
2023-05-21T06:13:38.552Z,93.2572
2023-05-21T06:14:38.745Z,93.1980
2023-05-21T06:16:42.403Z,93.2584
2023-05-21T06:21:43.878Z,92.7401
2023-05-21T06:22:43.981Z,92.0912
2023-05-21T06:27:47.508Z,90.2813
2023-05-21T06:28:48.757Z,89.8638
2023-05-21T06:29:48.962Z,88.9714
2023-05-21T06:30:50.488Z,86.8257
2023-05-21T06:31:52.211Z,86.2694
2023-05-21T06:32:52.855Z,87.6041
2023-05-21T06:33:53.496Z,87.1352
2023-05-21T06:34:54.909Z,87.0435
2023-05-21T06:37:57.198Z,87.6628
2023-05-21T06:38:57.301Z,87.1523
2023-05-21T06:39:57.400Z,86.2113
2023-05-21T06:40:58.527Z,86.2662
2023-05-21T06:41:58.680Z,85.8190
2023-05-21T06:43:00.107Z,85.7463
2023-05-21T06:44:01.041Z,86.5754
2023-05-21T06:49:05.261Z,86.1800
2023-05-21T06:51:04.983Z,83.0553
2023-05-21T06:52:06.014Z,83.1508
2023-05-21T06:53:06.882Z,83.1825
2023-05-21T06:54:08.030Z,83.5280
2023-05-21T06:55:08.662Z,83.9353
2023-05-21T06:56:09.245Z,83.9062
2023-05-21T06:57:10.609Z,83.8137
2023-05-21T06:58:12.443Z,83.8897
2023-05-21T07:00:13.839Z,83.2711
2023-05-21T07:01:14.899Z,83.3014
2023-05-21T07:09:19.379Z,83.6246
2023-05-21T07:10:20.188Z,83.7705
2023-05-21T07:11:21.269Z,83.4794
2023-05-21T07:12:22.095Z,82.3067
2023-05-21T07:13:22.728Z,82.1863
2023-05-21T07:15:23.199Z,81.0340
2023-05-21T07:16:23.841Z,81.0149
2023-05-21T07:17:24.117Z,79.6764
2023-05-21T07:18:25.551Z,78.5335
2023-05-21T07:19:26.311Z,77.5557
2023-05-21T07:20:27.422Z,78.9668
2023-05-21T07:21:28.576Z,80.6144
2023-05-21T07:22:30.249Z,80.9903
2023-05-21T07:23:30.384Z,80.4852
2023-05-21T07:24:31.501Z,79.4733
2023-05-21T07:27:33.521Z,78.3424
2023-05-21T07:28:33.903Z,80.0903
2023-05-21T07:29:34.984Z,80.4435
2023-05-21T07:30:35.880Z,81.1152
2023-05-21T07:31:35.982Z,80.4797
2023-05-21T07:32:36.263Z,78.2357
2023-05-21T07:33:37.352Z,76.9036
2023-05-21T07:34:38.254Z,76.6869
2023-05-21T07:35:38.656Z,75.5565
2023-05-21T07:36:40.482Z,75.9121
2023-05-21T07:37:42.076Z,76.5894
2023-05-21T07:38:42.544Z,76.3164
2023-05-21T07:39:43.506Z,76.3953
2023-05-21T07:40:43.941Z,75.9536
2023-05-21T07:41:44.669Z,76.1845
2023-05-21T07:42:44.708Z,75.5956
2023-05-21T07:45:44.793Z,75.2249
2023-05-21T07:46:44.974Z,75.8056
2023-05-21T07:47:45.333Z,76.4052
2023-05-21T07:48:46.175Z,74.4680
2023-05-21T07:50:48.823Z,72.4565
2023-05-21T07:51:49.700Z,75.6856
2023-05-21T07:56:53.401Z,73.9765
2023-05-21T07:57:53.780Z,73.9819
2023-05-21T07:59:55.535Z,75.3946
2023-05-21T08:00:55.997Z,74.4929
2023-05-21T08:01:56.828Z,74.2385
2023-05-21T08:02:58.351Z,73.8077
2023-05-21T08:04:59.730Z,75.2497
2023-05-21T08:05:59.975Z,75.9232
2023-05-21T08:07:00.697Z,75.2200
2023-05-21T08:08:01.519Z,75.6630
2023-05-21T08:09:03.170Z,76.2850
2023-05-21T08:10:04.020Z,76.6058
2023-05-21T08:11:04.388Z,75.1369
2023-05-21T08:12:05.862Z,75.8001
2023-05-21T08:13:06.777Z,75.5199
2023-05-21T08:14:07.533Z,75.1125
2023-05-21T08:15:09.638Z,73.6086
2023-05-21T08:16:10.241Z,73.2904
2023-05-21T08:23:14.100Z,70.5078
2023-05-21T08:26:19.632Z,71.1119
2023-05-21T08:27:21.527Z,71.0018
2023-05-21T08:36:28.678Z,69.7810
2023-05-21T08:37:28.408Z,69.4952
2023-05-21T08:38:30.540Z,69.0124
2023-05-21T08:39:30.077Z,66.6573
2023-05-21T08:40:30.145Z,64.1098
2023-05-21T08:41:31.167Z,66.8459
2023-05-21T08:42:37.005Z,66.6503
2023-05-21T08:43:33.759Z,67.8087
2023-05-21T08:47:46.811Z,67.1333
2023-05-21T08:54:50.289Z,69.5060
2023-05-21T08:55:51.771Z,68.5118
2023-05-21T08:56:53.571Z,68.7089
2023-05-21T09:02:21.736Z,71.3621
2023-05-21T09:04:23.517Z,70.0487
2023-05-21T09:06:24.644Z,71.0323
2023-05-21T09:07:25.056Z,68.3290
2023-05-21T09:08:26.251Z,66.8680
2023-05-21T09:09:28.360Z,65.4750
2023-05-21T09:11:29.058Z,64.4854
2023-05-21T09:17:30.559Z,64.7028
2023-05-21T09:18:31.636Z,60.9400
2023-05-21T09:19:32.226Z,61.1497
2023-05-21T09:20:32.119Z,61.3700
2023-05-21T09:21:32.986Z,61.8729
2023-05-21T09:22:34.078Z,60.7528
2023-05-21T09:23:34.925Z,59.5427
2023-05-21T09:26:34.692Z,62.2776
2023-05-21T09:30:30.058Z,63.8547
2023-05-21T09:32:13.485Z,65.1446
2023-05-21T09:33:13.602Z,62.9544
2023-05-21T09:34:14.300Z,62.5203
2023-05-21T09:35:15.098Z,59.1840
2023-05-21T09:36:15.395Z,58.1478
2023-05-21T09:37:26.551Z,60.2491
2023-05-21T09:38:18.083Z,62.0743
2023-05-21T09:39:18.173Z,61.4192
2023-05-21T09:41:22.324Z,63.2686
2023-05-21T09:46:24.967Z,61.1643
2023-05-21T09:47:25.753Z,60.2933
2023-05-21T09:48:25.606Z,60.2407
2023-05-21T09:49:26.335Z,62.7350
2023-05-21T09:56:37.770Z,63.1489
2023-05-21T09:57:38.198Z,63.3700
2023-05-21T09:58:39.928Z,62.9639
2023-05-21T09:59:40.926Z,65.3393
2023-05-21T10:01:40.977Z,65.9951
2023-05-21T10:02:42.252Z,66.1189
2023-05-21T10:03:42.436Z,65.7199
2023-05-21T10:04:42.756Z,64.9309
2023-05-21T10:05:43.582Z,63.7691
2023-05-21T10:06:44.795Z,62.2906
2023-05-21T10:07:46.474Z,61.6093
2023-05-21T10:08:47.151Z,61.4103
2023-05-21T10:09:48.014Z,62.6919
2023-05-21T10:14:52.152Z,61.2119
2023-05-21T10:17:54.644Z,62.0839
2023-05-21T10:18:54.869Z,64.4660
2023-05-21T10:19:56.190Z,63.6568
2023-05-21T10:20:57.398Z,61.2473
2023-05-21T10:21:57.013Z,61.3405
2023-05-21T10:22:57.963Z,62.5303
2023-05-21T10:28:01.176Z,61.6137
2023-05-21T10:29:01.662Z,59.6380
2023-05-21T10:31:14.057Z,63.0523
2023-05-21T10:32:15.167Z,62.5665
2023-05-21T10:33:16.614Z,59.6534
2023-05-21T10:34:16.818Z,59.6920
2023-05-21T10:35:17.898Z,60.1987
2023-05-21T10:36:18.655Z,61.0137
2023-05-21T10:37:19.545Z,63.5751
2023-05-21T10:38:20.633Z,62.3375
2023-05-21T10:40:27.303Z,59.7060
2023-05-21T10:42:33.256Z,59.4348
2023-05-21T10:43:33.876Z,60.0290
2023-05-21T10:44:35.338Z,59.6971
2023-05-21T10:45:36.209Z,60.0161
2023-05-21T11:00:22.499Z,61.4699
2023-05-21T11:01:22.707Z,61.1589
2023-05-21T11:02:22.873Z,59.1956
2023-05-21T11:03:24.573Z,58.8389
2023-05-21T11:04:24.697Z,61.1864
2023-05-21T11:05:32.736Z,62.4692
2023-05-21T11:06:27.647Z,61.4937
2023-05-21T11:15:52.769Z,58.0787
2023-05-21T11:17:53.848Z,58.0657
2023-05-21T11:18:54.668Z,58.5289
2023-05-21T11:21:57.541Z,59.4663
2023-05-21T11:22:58.546Z,59.2738
2023-05-21T11:24:58.650Z,58.3659
2023-05-21T11:25:59.778Z,59.2709
2023-05-21T11:28:01.231Z,58.4250
2023-05-21T11:29:02.596Z,57.2857
2023-05-21T11:30:03.258Z,57.1131
2023-05-21T11:31:04.027Z,57.4692
2023-05-21T11:32:04.956Z,58.4783
2023-05-21T11:33:05.998Z,57.0048
2023-05-21T11:34:06.850Z,55.2354
2023-05-21T11:35:07.607Z,52.5757
2023-05-21T11:41:13.279Z,51.6447
2023-05-21T11:42:13.677Z,51.5104
2023-05-21T11:43:14.329Z,48.5568
2023-05-21T11:44:14.660Z,47.7246
2023-05-21T11:45:15.521Z,48.3929
2023-05-21T11:46:16.053Z,46.8969
2023-05-21T11:47:17.768Z,50.9087
2023-05-21T11:48:17.918Z,51.3168
2023-05-21T11:50:18.959Z,51.9814
2023-05-21T11:51:19.065Z,53.9497
2023-05-21T11:52:19.599Z,54.0470
2023-05-21T11:53:20.934Z,51.5363
2023-05-21T11:54:21.019Z,51.2441
2023-05-21T11:55:21.625Z,51.4838
2023-05-21T11:56:21.992Z,50.1352
2023-05-21T11:57:22.220Z,51.8919
2023-05-21T11:58:23.549Z,46.3325
2023-05-21T12:01:24.548Z,50.0528
2023-05-21T12:04:27.922Z,46.8348
2023-05-21T12:05:28.313Z,48.7842
2023-05-21T12:10:30.323Z,50.0748
2023-05-21T12:11:30.492Z,44.9663
2023-05-21T12:12:38.877Z,45.3236
2023-05-21T12:13:32.268Z,47.7546
2023-05-21T12:14:32.081Z,48.8858
2023-05-21T12:15:32.655Z,49.9567
2023-05-21T12:16:33.805Z,48.6297
2023-05-21T12:17:34.986Z,50.8025
2023-05-21T12:19:35.888Z,51.3683
2023-05-21T12:20:37.268Z,49.8275
2023-05-21T12:21:37.615Z,50.5238
2023-05-21T12:23:39.611Z,48.6392
2023-05-21T12:24:40.813Z,46.6941
2023-05-21T12:28:43.417Z,47.2704
2023-05-21T12:29:44.498Z,50.0457
2023-05-21T12:32:45.615Z,52.6225
2023-05-21T12:33:45.702Z,50.2064
2023-05-21T12:34:45.874Z,48.9222
2023-05-21T12:35:47.841Z,51.5972
2023-05-21T12:38:49.706Z,49.7171
2023-05-21T12:39:50.718Z,48.5800
2023-05-21T12:40:51.394Z,51.4522
2023-05-21T12:41:51.205Z,51.9727
2023-05-21T12:47:54.193Z,51.5656
2023-05-21T12:48:54.988Z,50.6292
2023-05-21T12:50:06.619Z,54.2513
2023-05-21T12:51:00.498Z,54.6582
2023-05-21T12:52:02.914Z,54.0723
2023-05-21T12:54:04.884Z,52.4162
2023-05-21T12:55:07.528Z,52.2361
2023-05-21T12:56:06.011Z,54.6163
2023-05-21T12:57:06.795Z,53.2785
2023-05-21T12:58:06.830Z,53.9993
2023-05-21T12:59:07.521Z,53.2245
2023-05-21T13:00:08.890Z,53.1456
2023-05-21T13:01:09.908Z,54.1277
2023-05-21T13:02:10.718Z,55.2619
2023-05-21T13:13:21.473Z,54.4919
2023-05-21T13:15:20.767Z,53.3513
2023-05-21T13:16:21.680Z,51.5363
2023-05-21T13:21:23.812Z,54.0144
2023-05-21T13:22:23.797Z,53.6333
2023-05-21T13:23:24.946Z,56.1544
2023-05-21T13:26:27.042Z,54.8621
2023-05-21T13:27:27.975Z,54.2954
2023-05-21T13:29:30.070Z,53.8282
2023-05-21T13:31:31.086Z,55.7529
2023-05-21T13:32:31.879Z,53.3747
2023-05-21T13:33:33.322Z,54.2450
2023-05-21T13:35:33.653Z,51.9853
2023-05-21T13:36:34.878Z,52.7436
2023-05-21T13:38:35.413Z,54.6440
2023-05-21T13:39:35.589Z,55.1960
2023-05-21T13:40:38.864Z,53.1776
2023-05-21T13:41:38.155Z,49.3891
2023-05-21T13:50:44.838Z,50.3527
2023-05-21T13:51:45.464Z,49.2850
2023-05-21T13:52:46.982Z,50.9881
2023-05-21T13:53:48.498Z,50.3185
2023-05-21T13:54:48.644Z,49.9392
2023-05-21T13:55:49.112Z,49.5025
2023-05-21T13:56:50.037Z,48.3289
2023-05-21T13:57:51.498Z,50.0585
2023-05-21T13:58:51.871Z,51.6783
2023-05-21T13:59:52.385Z,50.1378
2023-05-21T14:03:53.727Z,50.3200
2023-05-21T14:05:57.570Z,47.1482
2023-05-21T14:06:57.822Z,47.5748
2023-05-21T14:07:57.376Z,54.9878
2023-05-21T14:08:58.394Z,53.9429
2023-05-21T14:09:58.864Z,48.7319
2023-05-21T14:12:01.666Z,48.6795
2023-05-21T14:13:18.269Z,48.4270
2023-05-21T14:14:06.056Z,46.2665
2023-05-21T14:15:07.066Z,44.6447
2023-05-21T14:16:07.298Z,47.0194
2023-05-21T14:17:09.033Z,47.8576
2023-05-21T14:18:10.908Z,44.2307
2023-05-21T14:25:14.978Z,39.3981
2023-05-21T14:26:15.996Z,39.0534
2023-05-21T14:27:17.108Z,40.2325
2023-05-21T14:28:18.312Z,42.3501
2023-05-21T14:31:19.792Z,43.7645
2023-05-21T14:32:20.184Z,43.6595
2023-05-21T14:33:22.383Z,44.4568
2023-05-21T14:34:24.089Z,42.9813
2023-05-21T14:35:25.566Z,43.6815
2023-05-21T14:37:26.579Z,44.9844
2023-05-21T14:38:27.523Z,46.1882
2023-05-21T14:43:29.770Z,46.3958
2023-05-21T14:45:31.020Z,43.6039
2023-05-21T14:46:32.468Z,42.9461
2023-05-21T14:54:37.179Z,56.6885
2023-05-21T14:55:39.084Z,49.3222
2023-05-21T14:57:39.480Z,54.1150
2023-05-21T14:58:39.610Z,45.8939
2023-05-21T14:59:40.216Z,50.2540
2023-05-21T15:00:41.262Z,48.7612
2023-05-21T15:02:40.354Z,62.3130
2023-05-21T15:03:41.169Z,45.6572
2023-05-21T15:04:42.397Z,44.2859
2023-05-21T15:05:43.181Z,48.3757
2023-05-21T15:06:43.281Z,56.5252
2023-05-21T15:09:47.360Z,61.2654
2023-05-21T15:10:48.670Z,59.7560
2023-05-21T15:11:49.053Z,53.3744
2023-05-21T15:12:49.148Z,59.8022
2023-05-21T15:13:49.523Z,59.5186
2023-05-21T15:14:50.288Z,56.4973
2023-05-21T15:15:50.339Z,57.7708
2023-05-21T15:16:50.936Z,57.6690
2023-05-21T15:19:52.121Z,52.0388
2023-05-21T15:23:52.463Z,46.3198
2023-05-21T15:24:53.366Z,45.1330
2023-05-21T15:25:53.466Z,51.4944
2023-05-21T15:26:54.262Z,50.1521
2023-05-21T15:27:54.330Z,48.3277
2023-05-21T15:42:37.745Z,39.5996
2023-05-21T15:43:38.360Z,39.3346
2023-05-21T15:44:40.164Z,40.6927
2023-05-21T15:45:41.768Z,41.5234
2023-05-21T15:48:46.330Z,43.7964
2023-05-21T15:55:32.912Z,39.0698
2023-05-21T15:57:34.045Z,41.2769
2023-05-21T15:59:46.363Z,41.5205
2023-05-21T16:00:46.874Z,41.5284
2023-05-21T16:01:48.562Z,40.8192
2023-05-21T16:02:49.516Z,41.0361
2023-05-21T16:03:50.464Z,42.2354
2023-05-21T16:04:51.420Z,42.4469
2023-05-21T16:05:51.943Z,42.7808
2023-05-21T16:06:52.726Z,40.0745
2023-05-21T16:07:53.416Z,38.6063
2023-05-21T16:08:53.452Z,40.8958
2023-05-21T16:09:54.910Z,41.3622
2023-05-21T16:10:55.372Z,41.7730
2023-05-21T16:14:59.546Z,41.4321
2023-05-21T16:16:00.835Z,44.2376
2023-05-21T16:17:01.358Z,42.0288
2023-05-21T16:20:03.204Z,45.2199
2023-05-21T16:21:05.011Z,45.1115
2023-05-21T16:22:05.389Z,42.2338
2023-05-21T16:23:05.772Z,41.9541
2023-05-21T16:24:06.071Z,44.2521
2023-05-21T16:27:06.954Z,44.3724
2023-05-21T16:33:11.605Z,50.1015
2023-05-21T16:34:12.036Z,50.6414
2023-05-21T16:35:13.474Z,53.9419
2023-05-21T16:36:16.308Z,53.3506
2023-05-21T16:37:15.740Z,56.2844
2023-05-21T16:38:16.673Z,50.8330
2023-05-21T16:39:17.229Z,55.1608
2023-05-21T16:40:18.247Z,51.7556
2023-05-21T16:41:19.750Z,53.7524
2023-05-21T16:42:20.244Z,51.4633
2023-05-21T16:43:21.346Z,48.7720
2023-05-21T16:44:22.911Z,50.4786
2023-05-21T16:45:23.386Z,50.5899
2023-05-21T16:46:24.582Z,51.5011
2023-05-21T16:48:25.367Z,50.5552
2023-05-21T16:51:27.967Z,44.3106
2023-05-21T16:52:29.350Z,45.0503
2023-05-21T16:53:30.471Z,45.4111
2023-05-21T16:59:34.275Z,49.4004
2023-05-21T17:00:34.372Z,48.1947
2023-05-21T17:01:35.447Z,49.4463
2023-05-21T17:04:36.476Z,49.1564
2023-05-21T17:05:37.260Z,48.3915
2023-05-21T17:06:39.150Z,47.5318
2023-05-21T17:07:40.001Z,46.8972
2023-05-21T17:08:40.288Z,47.8872
2023-05-21T17:09:41.285Z,52.3927
2023-05-21T17:10:43.051Z,55.1701
2023-05-21T17:11:44.170Z,59.9363
2023-05-21T17:13:45.415Z,55.9096
2023-05-21T17:14:45.670Z,59.4618
2023-05-21T17:16:45.993Z,64.0159
2023-05-21T17:17:47.112Z,65.5497
2023-05-21T17:18:47.691Z,66.1990
2023-05-21T17:19:48.103Z,63.7390
2023-05-21T17:20:48.622Z,61.9843
2023-05-21T17:21:48.916Z,64.6834
2023-05-21T17:22:49.780Z,62.6753
2023-05-21T17:23:50.368Z,66.6796
2023-05-21T17:24:50.878Z,65.1655
2023-05-21T17:25:51.105Z,63.8256
2023-05-21T17:26:51.958Z,65.5762
2023-05-21T17:27:52.646Z,62.6755
2023-05-21T17:28:53.172Z,63.1713
2023-05-21T17:29:54.164Z,62.8253
2023-05-21T17:30:55.786Z,64.6850
2023-05-21T17:31:56.928Z,56.6249
2023-05-21T17:32:57.719Z,57.1096
2023-05-21T17:33:59.152Z,62.7876
2023-05-21T17:36:00.417Z,62.4148
2023-05-21T17:37:00.844Z,64.7674
2023-05-21T17:38:01.513Z,65.3730
2023-05-21T17:39:01.693Z,67.1414
2023-05-21T17:40:03.152Z,65.9015
2023-05-21T17:46:07.538Z,67.8946
2023-05-21T17:47:08.925Z,67.1083
2023-05-21T17:48:09.048Z,65.7326
2023-05-21T17:49:09.876Z,68.8266
2023-05-21T17:50:11.098Z,70.9489
2023-05-21T17:51:11.372Z,72.1038
2023-05-21T17:52:11.409Z,71.9489
2023-05-21T17:53:12.515Z,71.3359
2023-05-21T17:54:13.751Z,73.6251
2023-05-21T17:55:14.924Z,70.1073
2023-05-21T17:56:15.949Z,69.9966
2023-05-21T17:59:16.257Z,74.6100
2023-05-21T18:00:17.121Z,74.4438
2023-05-21T18:01:17.115Z,74.2001
2023-05-21T18:02:19.441Z,74.3832
2023-05-21T18:03:20.986Z,75.6471
2023-05-21T18:04:21.281Z,71.9668
2023-05-21T18:09:22.871Z,76.4802
2023-05-21T18:10:24.316Z,77.0666
2023-05-21T18:11:24.436Z,77.5448
2023-05-21T18:13:27.392Z,76.4855
2023-05-21T18:18:29.007Z,76.4355
2023-05-21T18:19:30.876Z,75.9644
2023-05-21T18:20:30.661Z,76.4063
2023-05-21T18:23:32.191Z,74.8578
2023-05-21T18:24:32.766Z,76.3916
2023-05-21T18:25:35.517Z,77.4210
2023-05-21T18:26:36.474Z,77.8653
2023-05-21T18:27:36.886Z,76.5306
2023-05-21T18:28:37.356Z,76.8989
2023-05-21T18:30:39.009Z,77.2779
2023-05-21T18:31:38.981Z,77.3141
2023-05-21T18:35:40.680Z,75.7179
2023-05-21T18:36:41.596Z,74.7326
2023-05-21T18:37:42.506Z,76.2616
2023-05-21T18:40:44.816Z,77.1045
2023-05-21T18:41:45.416Z,76.6235
2023-05-21T18:43:47.363Z,77.9248
2023-05-21T18:44:48.415Z,77.7661
2023-05-21T18:45:49.298Z,78.4480
2023-05-21T18:46:49.824Z,75.4028
2023-05-21T18:47:51.080Z,75.8566
2023-05-21T18:48:51.642Z,76.4640
2023-05-21T18:50:52.876Z,75.5781
2023-05-21T18:51:53.113Z,74.0959
2023-05-21T18:52:55.027Z,76.6002
2023-05-21T18:53:56.028Z,76.1058
2023-05-21T18:54:56.312Z,75.4362
2023-05-21T18:55:56.455Z,76.0397
2023-05-21T19:05:02.698Z,76.1278
2023-05-21T19:06:03.664Z,75.9867
2023-05-21T19:07:03.842Z,76.5571
2023-05-21T19:08:05.470Z,75.9754
2023-05-21T19:09:06.424Z,74.1906
2023-05-21T19:11:07.527Z,75.6561
2023-05-21T19:12:08.130Z,74.8872
2023-05-21T19:13:08.414Z,74.8890
2023-05-21T19:14:09.616Z,76.5513
2023-05-21T19:15:11.408Z,75.8393
2023-05-21T19:17:11.549Z,75.3643
2023-05-21T19:18:12.108Z,75.3362
2023-05-21T19:19:12.739Z,75.6243
2023-05-21T19:20:13.810Z,76.9716
2023-05-21T19:21:14.924Z,77.0169
2023-05-21T19:22:15.510Z,77.4566
2023-05-21T19:23:15.734Z,77.8198
2023-05-21T19:24:16.018Z,77.6930
2023-05-21T19:25:16.302Z,78.0358
2023-05-21T19:26:16.998Z,79.1810
2023-05-21T19:27:18.272Z,78.5206
2023-05-21T19:30:19.225Z,76.3491
2023-05-21T19:31:19.362Z,78.8715
2023-05-21T19:32:20.695Z,78.2317
2023-05-21T19:37:23.178Z,77.5475
2023-05-21T19:40:25.456Z,76.4237
2023-05-21T19:41:25.857Z,77.4017
2023-05-21T19:42:26.944Z,77.9809
2023-05-21T19:43:28.442Z,79.7945
2023-05-21T19:44:28.484Z,79.3406
2023-05-21T19:45:29.365Z,79.8006
2023-05-21T19:46:30.038Z,79.7455
2023-05-21T19:56:34.296Z,81.1421
2023-05-21T19:57:34.578Z,81.8370
2023-05-21T20:02:38.714Z,79.5377
2023-05-21T20:03:39.116Z,79.9524
2023-05-21T20:08:41.991Z,81.1345
2023-05-21T20:09:42.813Z,81.6807
2023-05-21T20:11:44.327Z,82.7411
2023-05-21T20:12:44.439Z,82.5192
2023-05-21T20:13:45.949Z,83.1420
2023-05-21T20:14:47.010Z,82.7788
2023-05-21T20:15:47.368Z,82.1153
2023-05-21T20:16:49.184Z,83.8510
2023-05-21T20:17:50.046Z,83.5033
2023-05-21T20:18:50.934Z,82.4358
2023-05-21T20:19:52.388Z,83.5564
2023-05-21T20:20:52.738Z,83.7419
2023-05-21T20:21:52.854Z,83.3306
2023-05-21T20:33:00.262Z,83.9792
2023-05-21T20:34:01.501Z,84.8222